Time;durP1;ratioP1;P1;durP2;ratioP2;P2;SDS_P1;SDS_P2;PMS_P1;PMS_P2;Temp;Humidity;BMP_temperature;BMP_pressure;BME280_temperature;BME280_humidity;BME280_pressure;Samples;Min_cycle;Max_cycle;Signal;HPM_P1;HPM_P2
2024/04/03 00:08:49;;;;;;;9.20;5.20;;;;;;;11.18;82.66;98735.23;671554;1260;202840;-85
2024/04/03 00:23:54;;;;;;;9.60;4.90;;;;;;;10.51;85.37;98736.91;673454;1262;138727;-85
2024/04/03 00:38:57;;;;;;;8.50;3.70;;;;;;;9.80;89.73;98740.92;671019;1262;138602;-85
2024/04/03 00:54:00;;;;;;;5.80;4.20;;;;;;;9.99;87.86;98722.20;670320;1262;138728;-84
2024/04/03 01:09:03;;;;;;;10.80;4.40;;;;;;;10.07;89.12;98713.00;672259;1262;138662;-84
2024/04/03 01:24:07;;;;;;;8.70;4.40;;;;;;;9.71;91.43;98721.47;670407;1262;139588;-84
2024/04/03 01:39:11;;;;;;;8.10;4.20;;;;;;;9.47;94.00;98714.34;672289;1263;138676;-83
2024/04/03 01:54:14;;;;;;;9.60;4.30;;;;;;;9.83;91.67;98699.66;671304;1260;139296;-84
2024/04/03 02:09:17;;;;;;;9.00;4.10;;;;;;;9.74;91.79;98699.11;669889;1263;139057;-85
2024/04/03 02:24:22;;;;;;;7.80;4.40;;;;;;;9.64;92.17;98693.29;671859;1263;138589;-86
2024/04/03 02:39:25;;;;;;;8.00;3.70;;;;;;;9.56;92.52;98674.27;672453;1259;138676;-84
2024/04/03 02:54:28;;;;;;;7.20;3.80;;;;;;;9.57;92.81;98661.33;668151;1259;138513;-85
2024/04/03 03:09:31;;;;;;;3.60;2.70;;;;;;;9.56;92.52;98658.49;667506;1263;138463;-82
2024/04/03 03:24:36;;;;;;;4.40;2.90;;;;;;;9.56;92.77;98643.58;667422;1262;138869;-84
2024/04/03 03:39:42;;;;;;;4.80;3.10;;;;;;;9.49;93.45;98630.77;667494;1264;139854;-82
2024/04/03 03:54:46;;;;;;;6.60;3.40;;;;;;;9.44;93.79;98636.08;668558;1262;141869;-84
2024/04/03 04:09:50;;;;;;;5.80;3.70;;;;;;;9.37;94.14;98645.55;670447;1263;139573;-85
2024/04/03 04:36:55;;;;;;;5.30;3.10;;;;;;;9.14;94.96;98654.17;650377;1295;545322;-82
2024/04/03 04:51:58;;;;;;;4.60;2.70;;;;;;;9.09;94.45;98670.33;661475;1275;139164;-83
2024/04/03 05:07:02;;;;;;;8.20;2.80;;;;;;;8.96;92.74;98669.52;662646;1272;138252;-84
2024/04/03 05:22:10;;;;;;;3.20;1.60;;;;;;;8.85;90.53;98696.84;660950;1276;138313;-83
2024/04/03 05:37:13;;;;;;;;;;;;;;;9.42;86.72;98718.37;661938;1276;138061;-81
2024/04/03 05:52:20;;;;;;;3.60;1.20;;;;;;;10.04;80.76;98736.88;661321;1275;124588;-85
2024/04/03 06:07:23;;;;;;;1.40;1.00;;;;;;;9.98;77.80;98751.16;660958;1272;138444;-84
2024/04/03 06:22:26;;;;;;;1.20;0.70;;;;;;;9.86;74.61;98767.34;662077;1271;137914;-82
2024/04/03 06:37:29;;;;;;;2.00;1.20;;;;;;;9.72;73.36;98781.25;662069;1274;137752;-82
2024/04/03 06:52:34;;;;;;;3.10;2.30;;;;;;;9.65;72.73;98805.02;666819;1272;138247;-83
2024/04/03 07:07:37;;;;;;;5.60;3.50;;;;;;;9.48;72.19;98821.86;662659;1286;138537;-82
2024/04/03 07:22:40;;;;;;;9.80;3.80;;;;;;;9.52;71.97;98838.86;663319;1286;139962;-81
2024/04/03 07:37:44;;;;;;;8.60;3.40;;;;;;;9.39;72.67;98858.78;672921;1267;137983;-82
2024/04/03 07:52:47;;;;;;;7.10;3.80;;;;;;;9.62;72.68;98875.81;673554;1268;138220;-80
2024/04/03 08:07:50;;;;;;;10.10;6.40;;;;;;;10.05;71.69;98896.58;665512;1263;138684;-81
2024/04/03 08:22:54;;;;;;;4.10;3.50;;;;;;;9.83;72.48;98937.68;664989;1263;139680;-81
2024/04/03 08:37:57;;;;;;;11.10;5.40;;;;;;;9.16;73.74;98966.54;667431;1268;138566;-84
2024/04/03 08:53:03;;;;;;;11.30;6.60;;;;;;;8.69;76.08;98979.15;665228;1264;138856;-84
2024/04/03 09:08:07;;;;;;;22.40;8.50;;;;;;;8.94;77.56;98995.92;665025;1267;140419;-80
2024/04/03 09:23:13;;;;;;;13.00;5.90;;;;;;;8.83;78.46;99020.55;665295;1264;138974;-81
2024/04/03 09:38:17;;;;;;;6.80;3.70;;;;;;;8.75;79.11;99034.98;664831;1264;138532;-83
2024/04/03 09:53:24;;;;;;;5.90;4.10;;;;;;;8.87;79.55;99060.84;665661;1265;139375;-81
2024/04/03 10:08:37;;;;;;;18.50;7.30;;;;;;;8.71;78.51;99085.58;665573;1264;140011;-81
2024/04/03 10:23:44;;;;;;;16.20;8.00;;;;;;;8.89;77.84;99100.71;665080;1264;139044;-81
2024/04/03 10:38:48;;;;;;;6.40;3.80;;;;;;;9.09;76.50;99128.50;666587;1267;140211;-84
2024/04/03 10:53:52;;;;;;;27.30;11.60;;;;;;;9.51;74.49;99146.11;665121;1265;138437;-82
2024/04/03 11:08:56;;;;;;;12.70;6.60;;;;;;;9.24;71.62;99173.80;665802;1275;138727;-81
2024/04/03 11:23:59;;;;;;;18.10;12.30;;;;;;;9.03;71.18;99193.44;666005;1275;138688;-82
2024/04/03 11:39:04;;;;;;;36.70;16.00;;;;;;;8.94;69.85;99228.73;666783;1266;139366;-81
2024/04/03 11:54:08;;;;;;;10.10;7.10;;;;;;;8.95;68.94;99255.64;665516;1265;139454;-83
2024/04/03 12:09:22;;;;;;;69.40;25.40;;;;;;;8.72;67.30;99283.13;666355;1265;138426;-81
2024/04/03 12:24:26;;;;;;;13.30;6.60;;;;;;;8.51;66.96;99305.15;666099;1266;138995;-80
2024/04/03 12:39:30;;;;;;;14.30;8.20;;;;;;;9.67;66.60;99318.85;668159;1278;139091;-81
2024/04/03 12:54:33;;;;;;;5.80;3.60;;;;;;;10.31;64.55;99335.39;667146;1264;139025;-83
2024/04/03 13:09:37;;;;;;;75.70;34.70;;;;;;;9.34;63.60;99366.33;665534;1281;141142;-82
2024/04/03 13:24:41;;;;;;;25.40;12.00;;;;;;;8.79;64.63;99402.61;665194;1265;139114;-83
2024/04/03 13:39:44;;;;;;;39.40;12.80;;;;;;;8.66;65.06;99430.45;669384;1263;139957;-83
2024/04/03 13:54:48;;;;;;;70.80;17.30;;;;;;;8.70;66.30;99455.21;665055;1273;139981;-84
2024/04/03 14:09:51;;;;;;;34.60;9.90;;;;;;;8.48;66.53;99482.48;665476;1269;138994;-81
2024/04/03 14:24:56;;;;;;;10.50;4.90;;;;;;;8.33;65.65;99507.35;664916;1260;138481;-85
2024/04/03 14:40:00;;;;;;;38.00;12.90;;;;;;;7.99;65.78;99536.52;665085;1266;138860;-83
2024/04/03 14:55:03;;;;;;;11.50;5.80;;;;;;;8.17;65.49;99558.77;666267;1279;139484;-83
2024/04/03 15:10:07;;;;;;;31.30;12.30;;;;;;;8.22;65.33;99568.13;665352;1264;139166;-83
2024/04/03 15:25:13;;;;;;;33.00;10.40;;;;;;;8.47;64.81;99588.21;665518;1275;138822;-80
2024/04/03 15:40:19;;;;;;;13.80;6.40;;;;;;;8.31;64.04;99610.31;665687;1264;138651;-81
2024/04/03 15:55:23;;;;;;;21.00;9.00;;;;;;;8.24;64.91;99638.53;666974;1273;138986;-83
2024/04/03 16:10:27;;;;;;;114.40;34.60;;;;;;;8.28;66.15;99677.71;675252;1261;138627;-81
2024/04/03 16:25:31;;;;;;;30.70;12.70;;;;;;;8.15;67.18;99714.86;669674;1264;139105;-82
2024/04/03 16:40:34;;;;;;;31.90;14.10;;;;;;;8.24;68.11;99740.08;669411;1263;178274;-83
2024/04/03 16:55:37;;;;;;;53.80;16.40;;;;;;;8.20;68.29;99760.95;670312;1277;139410;-82
2024/04/03 17:10:46;;;;;;;40.10;13.90;;;;;;;7.74;68.78;99779.32;671011;1263;139020;-82
2024/04/03 17:25:50;;;;;;;63.70;20.40;;;;;;;7.52;69.54;99808.78;668042;1264;138532;-82
2024/04/03 17:40:55;;;;;;;85.90;26.60;;;;;;;7.30;69.93;99847.32;667976;1260;138834;-81
2024/04/03 17:55:58;;;;;;;44.80;15.20;;;;;;;7.12;70.36;99885.45;667162;1264;139292;-82
2024/04/03 18:11:02;;;;;;;39.90;13.70;;;;;;;6.99;70.75;99906.48;668800;1262;139663;-82
2024/04/03 18:26:05;;;;;;;29.10;11.60;;;;;;;6.92;70.81;99922.27;670723;1274;139179;-82
2024/04/03 18:41:08;;;;;;;78.30;38.00;;;;;;;6.82;71.00;99950.20;670794;1260;140319;-83
2024/04/03 18:56:12;;;;;;;47.20;25.60;;;;;;;6.70;70.67;99960.20;669011;1264;138992;-83
2024/04/03 19:11:15;;;;;;;55.00;30.10;;;;;;;6.63;70.62;99962.56;667892;1264;138850;-83
2024/04/03 19:26:20;;;;;;;73.20;26.20;;;;;;;6.48;70.70;99966.02;668103;1266;139497;-84
2024/04/03 19:41:23;;;;;;;87.30;28.20;;;;;;;6.13;70.54;99960.28;667449;1264;138975;-82
2024/04/03 19:56:27;;;;;;;40.00;15.70;;;;;;;5.84;70.69;99956.84;674354;1266;138315;-84
2024/04/03 20:11:30;;;;;;;37.20;13.90;;;;;;;5.59;71.55;99966.94;671839;1266;139050;-82
2024/04/03 20:26:34;;;;;;;27.50;10.90;;;;;;;5.37;72.19;99967.49;666039;1277;138680;-82
2024/04/03 20:41:38;;;;;;;86.50;28.80;;;;;;;5.26;71.91;99967.52;666525;1265;139856;-82
2024/04/03 20:56:41;;;;;;;37.20;13.30;;;;;;;4.93;71.81;99966.73;666724;1262;138524;-82
2024/04/03 21:11:44;;;;;;;45.40;14.80;;;;;;;4.87;72.15;99977.36;665264;1267;138934;-83
2024/04/03 21:26:47;;;;;;;49.90;16.50;;;;;;;4.78;72.43;99987.34;665682;1261;138583;-82
2024/04/03 21:41:51;;;;;;;62.20;24.10;;;;;;;4.62;71.96;100001.04;666272;1264;139394;-82
2024/04/03 21:56:54;;;;;;;54.20;20.00;;;;;;;4.45;71.37;100010.33;665653;1264;139215;-82
2024/04/03 22:11:57;;;;;;;41.70;16.60;;;;;;;4.24;71.74;100018.64;666149;1261;140138;-82
2024/04/03 22:27:01;;;;;;;40.20;14.90;;;;;;;3.67;71.99;100036.78;665723;1265;139495;-81
2024/04/03 22:42:04;;;;;;;27.90;11.10;;;;;;;3.35;72.84;100040.34;666672;1264;138762;-84
2024/04/03 22:57:07;;;;;;;25.40;8.60;;;;;;;3.47;73.75;100041.52;666266;1263;138956;-83
2024/04/03 23:12:11;;;;;;;151.60;39.80;;;;;;;3.41;73.86;100047.42;665693;1264;139500;-82
2024/04/03 23:27:14;;;;;;;22.00;10.10;;;;;;;3.52;74.59;100054.84;666014;1264;139565;-83
2024/04/03 23:42:17;;;;;;;70.00;19.50;;;;;;;3.16;74.51;100052.59;666467;1277;138949;-82
2024/04/03 23:57:20;;;;;;;18.00;7.60;;;;;;;3.24;74.63;100056.77;665741;1264;139165;-82
